Time;durP1;ratioP1;P1;durP2;ratioP2;P2;SDS_P1;SDS_P2;PMS_P1;PMS_P2;Temp;Humidity;BMP_temperature;BMP_pressure;BME280_temperature;BME280_humidity;BME280_pressure;Samples;Min_cycle;Max_cycle;Signal;HPM_P1;HPM_P2
2022/01/19 00:01:14;;;;;;;81.73;27.83;;;;;;;-2.16;100.00;101487.31;4160521;28;20233;-68
2022/01/19 00:03:41;;;;;;;83.67;27.50;;;;;;;-2.15;100.00;101499.50;4161033;28;21638;-67
2022/01/19 00:06:09;;;;;;;80.90;27.00;;;;;;;-2.15;100.00;101495.13;4166069;28;20242;-66
2022/01/19 00:08:35;;;;;;;78.93;26.67;;;;;;;-2.16;100.00;101490.78;4157565;28;20302;-68
2022/01/19 00:11:02;;;;;;;84.47;28.83;;;;;;;-2.18;100.00;101494.31;4172512;28;20278;-68
2022/01/19 00:13:29;;;;;;;76.67;27.33;;;;;;;-2.15;100.00;101476.88;4165793;28;20289;-66
2022/01/19 00:15:55;;;;;;;90.07;28.40;;;;;;;-2.16;100.00;101476.91;4163427;28;20258;-69
2022/01/19 00:18:24;;;;;;;79.57;26.20;;;;;;;-2.08;100.00;101466.25;4163422;28;23996;-67
2022/01/19 00:20:53;;;;;;;77.93;25.50;;;;;;;-2.04;100.00;101466.16;4153951;28;20294;-66
2022/01/19 00:23:20;;;;;;;93.23;27.67;;;;;;;-2.00;100.00;101461.72;4166639;28;20241;-67
2022/01/19 00:25:48;;;;;;;77.90;28.03;;;;;;;-2.02;100.00;101443.50;4166581;28;20230;-68
2022/01/19 00:28:15;;;;;;;83.13;26.37;;;;;;;-1.98;100.00;101444.28;4169880;28;20231;-68
2022/01/19 00:30:43;;;;;;;83.50;28.47;;;;;;;-2.06;100.00;101444.50;4167406;28;20230;-70
2022/01/19 00:33:09;;;;;;;87.77;28.03;;;;;;;-1.99;100.00;101450.38;4178856;28;21003;-68
2022/01/19 00:35:36;;;;;;;82.70;26.80;;;;;;;-1.96;100.00;101447.72;4166411;28;20263;-67
2022/01/19 00:38:05;;;;;;;78.67;26.40;;;;;;;-1.92;100.00;101438.91;4148544;28;20250;-68
2022/01/19 00:40:33;;;;;;;85.80;26.30;;;;;;;-1.84;100.00;101451.75;4151846;28;20223;-68
2022/01/19 00:43:00;;;;;;;72.20;25.67;;;;;;;-1.84;100.00;101452.59;4157875;28;20618;-70
2022/01/19 00:45:26;;;;;;;73.63;27.33;;;;;;;-1.89;100.00;101449.25;4164338;28;20374;-69
2022/01/19 00:47:53;;;;;;;82.80;26.47;;;;;;;-1.91;100.00;101451.91;4162683;28;20506;-68
2022/01/19 00:50:24;;;;;;;78.77;26.30;;;;;;;-1.83;100.00;101449.09;4159644;28;20430;-67
2022/01/19 00:52:52;;;;;;;70.80;24.40;;;;;;;-1.81;100.00;101447.28;4157999;28;20230;-68
2022/01/19 00:55:20;;;;;;;63.13;24.20;;;;;;;-1.88;100.00;101450.97;4160365;28;21803;-67
2022/01/19 00:57:47;;;;;;;68.93;24.07;;;;;;;-1.87;100.00;101447.47;4162623;28;20237;-69
2022/01/19 01:00:23;;;;;;;74.73;23.03;;;;;;;-1.84;100.00;101443.94;4155023;28;20238;-67
2022/01/19 01:02:50;;;;;;;63.30;21.73;;;;;;;-1.83;100.00;101432.59;4153928;28;20461;-67
2022/01/19 01:05:17;;;;;;;63.60;21.97;;;;;;;-1.86;100.00;101430.91;4162905;28;20249;-68
2022/01/19 01:07:43;;;;;;;63.80;19.80;;;;;;;-1.83;100.00;101436.03;4154343;28;20229;-69
2022/01/19 01:10:13;;;;;;;54.30;18.83;;;;;;;-1.88;100.00;101431.84;4162199;28;20237;-70
2022/01/19 01:12:48;;;;;;;59.20;19.23;;;;;;;-1.76;100.00;101429.75;4164287;28;20636;-69
2022/01/19 01:18:20;;;;;;;49.70;18.80;;;;;;;-1.59;100.00;101423.22;4184741;28;20245;-67
2022/01/19 01:20:51;;;;;;;58.80;17.83;;;;;;;-1.71;100.00;101419.19;4174059;28;20352;-68
2022/01/19 01:23:20;;;;;;;53.47;19.03;;;;;;;-1.78;100.00;101408.09;4153707;28;20239;-69
2022/01/19 01:25:48;;;;;;;53.67;16.83;;;;;;;-1.78;100.00;101395.06;4179019;28;20233;-69
2022/01/19 01:28:15;;;;;;;61.20;18.03;;;;;;;-1.77;100.00;101390.69;4190060;28;21791;-67
2022/01/19 01:30:42;;;;;;;57.27;17.70;;;;;;;-1.78;100.00;101384.63;4164239;28;21365;-69
2022/01/19 01:33:09;;;;;;;64.67;17.87;;;;;;;-1.78;100.00;101379.41;4166296;28;20305;-67
2022/01/19 01:35:36;;;;;;;49.10;18.03;;;;;;;-1.78;100.00;101370.69;4175052;28;21775;-66
2022/01/19 01:38:04;;;;;;;58.37;18.30;;;;;;;-1.77;100.00;101370.66;4180868;28;21115;-69
2022/01/19 01:40:33;;;;;;;52.17;18.00;;;;;;;-1.80;100.00;101365.53;4156894;28;20232;-68
2022/01/19 01:43:02;;;;;;;60.20;18.97;;;;;;;-1.80;100.00;101360.31;4160550;28;20271;-69
2022/01/19 01:45:32;;;;;;;67.27;20.97;;;;;;;-1.74;100.00;101352.31;4165645;28;20273;-68
2022/01/19 01:48:19;;;;;;;56.77;20.33;;;;;;;-1.71;100.00;101343.53;4160214;28;20791;-66
2022/01/19 01:53:33;;;;;;;68.47;21.43;;;;;;;-1.47;100.00;101328.94;4172997;28;20242;-67
2022/01/19 01:56:05;;;;;;;68.33;22.27;;;;;;;-1.39;100.00;101334.75;4162243;28;20252;-69
2022/01/19 01:58:36;;;;;;;73.57;22.87;;;;;;;-1.47;100.00;101328.94;4160902;28;20249;-67
2022/01/19 02:01:03;;;;;;;69.97;25.10;;;;;;;-1.56;100.00;101322.22;4170361;28;20242;-66
2022/01/19 02:03:37;;;;;;;77.13;24.40;;;;;;;-1.58;100.00;101302.28;4165779;28;21855;-67
2022/01/19 02:08:55;;;;;;;76.57;23.60;;;;;;;-1.55;100.00;101297.81;4149580;28;20305;-68
2022/01/19 02:23:17;;;;;;;73.47;23.80;;;;;;;-1.56;100.00;101300.50;4158712;28;23998;-69
2022/01/19 02:25:45;;;;;;;66.93;21.00;;;;;;;-1.52;100.00;101299.50;4145362;28;21439;-68
2022/01/19 02:36:50;;;;;;;54.57;19.77;;;;;;;-1.50;100.00;101279.41;4132021;28;22198;-66
2022/01/19 02:42:26;;;;;;;73.17;19.73;;;;;;;-1.34;100.00;101270.19;4104885;29;20240;-66
2022/01/19 02:49:52;;;;;;;57.90;19.47;;;;;;;-1.12;100.00;101256.47;4168320;28;20230;-67
2022/01/19 02:52:21;;;;;;;57.60;18.10;;;;;;;-1.19;100.00;101244.53;4153596;28;20274;-66
2022/01/19 02:54:49;;;;;;;64.87;17.87;;;;;;;-1.16;100.00;101244.41;4134410;28;20226;-68
2022/01/19 02:57:17;;;;;;;57.20;17.83;;;;;;;-1.10;100.00;101236.34;4165388;28;21905;-68
2022/01/19 03:06:16;;;;;;;59.73;18.60;;;;;;;-0.99;100.00;101238.63;4155174;28;20291;-67
2022/01/19 03:10:46;;;;;;;55.67;18.00;;;;;;;-1.11;100.00;101229.44;4168871;28;20238;-67
2022/01/19 03:13:12;;;;;;;62.63;18.53;;;;;;;-1.04;100.00;101217.03;4156683;28;21900;-68
2022/01/19 03:15:39;;;;;;;65.13;18.10;;;;;;;-1.16;100.00;101206.09;4159507;28;21671;-67
2022/01/19 03:18:06;;;;;;;60.87;17.20;;;;;;;-1.23;100.00;101193.28;4161589;28;21790;-66
2022/01/19 03:20:33;;;;;;;55.30;17.43;;;;;;;-1.21;100.00;101181.03;4150749;28;20324;-67
2022/01/19 03:25:45;;;;;;;59.50;17.50;;;;;;;-1.12;100.00;101170.28;4180970;28;23067;-67
2022/01/19 03:28:12;;;;;;;51.50;17.03;;;;;;;-1.04;100.00;101162.19;4198032;28;20245;-66
2022/01/19 03:30:40;;;;;;;52.37;16.43;;;;;;;-0.99;100.00;101155.88;4190597;28;20233;-66
2022/01/19 03:33:07;;;;;;;61.23;17.10;;;;;;;-0.96;100.00;101149.69;4188669;28;20226;-67
2022/01/19 03:35:33;;;;;;;60.23;16.73;;;;;;;-0.91;100.00;101151.25;4168078;28;20253;-66
2022/01/19 03:38:00;;;;;;;51.10;16.23;;;;;;;-0.97;100.00;101151.47;4174199;28;20258;-66
2022/01/19 03:40:27;;;;;;;58.03;16.10;;;;;;;-0.95;100.00;101141.81;4158687;28;20762;-67
2022/01/19 03:42:53;;;;;;;56.67;16.20;;;;;;;-1.00;100.00;101138.50;4134968;28;22889;-68
2022/01/19 03:45:20;;;;;;;54.20;15.70;;;;;;;-0.99;100.00;101145.44;4168552;28;20234;-66
2022/01/19 03:48:09;;;;;;;51.53;17.33;;;;;;;-1.07;100.00;101131.81;4165484;28;20892;-68
2022/01/19 03:50:36;;;;;;;54.90;17.23;;;;;;;-0.95;100.00;101123.53;4161311;28;20280;-67
2022/01/19 03:53:03;;;;;;;57.77;17.60;;;;;;;-1.06;100.00;101116.06;4154010;28;20316;-67
2022/01/19 03:55:30;;;;;;;53.50;17.90;;;;;;;-1.15;100.00;101112.91;4177501;28;20249;-66
2022/01/19 03:57:56;;;;;;;57.80;18.30;;;;;;;-1.12;100.00;101112.84;4161033;28;21228;-66
2022/01/19 04:00:23;;;;;;;65.20;19.03;;;;;;;-1.11;100.00;101117.13;4165319;28;20335;-67
2022/01/19 04:02:50;;;;;;;61.53;19.67;;;;;;;-1.09;100.00;101112.72;4151660;28;21283;-67
2022/01/19 04:05:23;;;;;;;71.97;19.63;;;;;;;-1.01;100.00;101105.44;4145034;28;20234;-66
2022/01/19 04:07:50;;;;;;;59.47;18.90;;;;;;;-0.93;100.00;101099.97;4158186;28;21061;-66
2022/01/19 04:10:17;;;;;;;52.23;19.53;;;;;;;-0.85;100.00;101103.13;4158946;28;20266;-68
2022/01/19 04:15:12;;;;;;;66.93;19.17;;;;;;;-1.05;100.00;101098.66;4162679;28;21868;-67
2022/01/19 04:17:45;;;;;;;71.30;19.40;;;;;;;-1.08;100.00;101093.50;4160034;28;20259;-68
2022/01/19 04:20:12;;;;;;;62.13;18.73;;;;;;;-0.99;100.00;101082.75;4154018;28;20239;-67
2022/01/19 04:22:38;;;;;;;65.90;18.97;;;;;;;-0.96;100.00;101081.78;4160148;28;20306;-67
2022/01/19 04:25:06;;;;;;;63.13;19.47;;;;;;;-0.99;100.00;101087.13;4154408;28;20432;-67
2022/01/19 04:27:33;;;;;;;60.87;19.77;;;;;;;-0.97;100.00;101082.69;4155690;28;20450;-67
2022/01/19 04:30:12;;;;;;;74.07;21.33;;;;;;;-1.04;100.00;101078.59;4164332;28;20230;-70
2022/01/19 04:33:03;;;;;;;69.70;18.73;;;;;;;-0.96;100.00;101072.19;4159098;28;20242;-67
2022/01/19 04:35:32;;;;;;;55.40;19.77;;;;;;;-0.95;100.00;101073.88;4172087;28;20260;-68
2022/01/19 04:47:05;;;;;;;63.47;21.23;;;;;;;-0.95;100.00;101058.22;4154420;28;20302;-67
2022/01/19 04:54:17;;;;;;;60.10;20.33;;;;;;;-0.89;100.00;101047.56;4168331;28;21253;-67
2022/01/19 05:03:24;;;;;;;63.00;21.60;;;;;;;-0.83;100.00;101030.78;4155782;28;20245;-68
2022/01/19 05:06:05;;;;;;;72.03;22.03;;;;;;;-0.81;100.00;101025.50;4155227;28;26421;-67
2022/01/19 05:08:50;;;;;;;64.43;21.20;;;;;;;-0.76;100.00;101026.19;4158229;28;22842;-68
2022/01/19 05:14:03;;;;;;;62.60;21.27;;;;;;;-0.73;100.00;101010.38;4159304;28;20246;-68
2022/01/19 05:16:30;;;;;;;65.97;22.20;;;;;;;-0.68;100.00;101011.03;4170519;28;20245;-68
2022/01/19 05:18:57;;;;;;;57.67;21.83;;;;;;;-0.67;100.00;101000.53;4165094;28;20297;-68
2022/01/19 05:21:23;;;;;;;60.80;22.13;;;;;;;-0.72;100.00;101005.09;4166490;28;20611;-69
2022/01/19 05:23:50;;;;;;;74.07;23.60;;;;;;;-0.66;100.00;100998.78;4173080;28;23165;-69
2022/01/19 05:26:17;;;;;;;58.43;21.23;;;;;;;-0.68;100.00;101000.59;4161916;28;20798;-69
2022/01/19 05:28:43;;;;;;;65.47;22.27;;;;;;;-0.65;100.00;101000.50;4162856;28;20274;-67
2022/01/19 05:31:11;;;;;;;60.70;22.53;;;;;;;-0.67;100.00;100992.69;4168842;28;20236;-67
2022/01/19 05:33:38;;;;;;;73.93;23.30;;;;;;;-0.67;100.00;100984.88;4135111;28;20243;-67
2022/01/19 05:36:04;;;;;;;62.37;23.60;;;;;;;-0.63;100.00;100985.63;4141811;28;20348;-68
2022/01/19 05:38:32;;;;;;;59.00;21.87;;;;;;;-0.58;100.00;100988.03;4166579;28;20242;-66
2022/01/19 05:40:58;;;;;;;63.23;21.13;;;;;;;-0.53;100.00;100979.09;4161778;28;20627;-70
2022/01/19 05:43:25;;;;;;;64.77;21.83;;;;;;;-0.55;100.00;100982.69;4167973;28;20238;-68
2022/01/19 05:45:52;;;;;;;60.50;20.80;;;;;;;-0.52;100.00;100988.63;4161845;28;20269;-68
2022/01/19 05:48:19;;;;;;;57.60;21.83;;;;;;;-0.51;100.00;100990.34;4170739;28;20230;-70
2022/01/19 05:50:45;;;;;;;60.57;21.63;;;;;;;-0.55;100.00;100985.31;4164700;28;20625;-68
2022/01/19 05:53:13;;;;;;;62.23;21.27;;;;;;;-0.53;100.00;100992.16;4153213;28;21296;-67
2022/01/19 05:55:39;;;;;;;66.93;22.20;;;;;;;-0.53;100.00;100986.94;4166946;28;20378;-66
2022/01/19 05:58:06;;;;;;;55.10;20.93;;;;;;;-0.51;100.00;100989.50;4177872;28;20319;-67
2022/01/19 06:00:33;;;;;;;56.23;20.37;;;;;;;-0.51;100.00;100986.88;4183993;28;20241;-66
2022/01/19 06:03:00;;;;;;;50.47;19.13;;;;;;;-0.49;100.00;100990.31;4168896;28;20230;-68
2022/01/19 06:05:27;;;;;;;56.20;18.73;;;;;;;-0.48;100.00;100984.16;4167994;28;20257;-69
2022/01/19 06:08:11;;;;;;;48.70;18.13;;;;;;;-0.43;100.00;100983.03;4151366;28;20234;-68
2022/01/19 06:10:44;;;;;;;53.60;19.83;;;;;;;-0.38;100.00;100982.00;4144993;28;22205;-67
2022/01/19 06:13:15;;;;;;;55.57;19.03;;;;;;;-0.36;100.00;100982.81;4160418;28;20233;-68
2022/01/19 06:15:43;;;;;;;50.33;17.97;;;;;;;-0.33;100.00;100972.22;4152981;28;22485;-70
2022/01/19 06:18:09;;;;;;;49.47;17.93;;;;;;;-0.33;100.00;100967.84;4153256;28;20314;-67
2022/01/19 06:20:36;;;;;;;55.20;19.33;;;;;;;-0.26;100.00;100965.81;4155224;28;20242;-69
2022/01/19 06:23:03;;;;;;;57.53;18.67;;;;;;;-0.23;100.00;100969.16;4140415;28;20254;-69
2022/01/19 06:25:30;;;;;;;43.00;17.73;;;;;;;-0.31;100.00;100957.31;4158263;28;20728;-68
2022/01/19 06:27:57;;;;;;;45.83;17.63;;;;;;;-0.22;100.00;100968.25;4151047;28;20604;-73
2022/01/19 06:30:24;;;;;;;52.17;18.80;;;;;;;-0.26;100.00;100957.97;4156779;28;20242;-72
2022/01/19 06:32:50;;;;;;;50.13;18.30;;;;;;;-0.31;100.00;100960.78;4152815;28;23161;-68
2022/01/19 06:35:17;;;;;;;60.77;19.70;;;;;;;-0.26;100.00;100955.34;4155576;28;21587;-71
2022/01/19 06:37:44;;;;;;;46.03;18.17;;;;;;;-0.28;100.00;100954.56;4165952;28;20894;-68
2022/01/19 06:40:13;;;;;;;45.67;18.70;;;;;;;-0.29;100.00;100952.88;4150147;28;21302;-70
2022/01/19 06:42:40;;;;;;;54.20;19.50;;;;;;;-0.26;100.00;100942.28;4151634;28;21270;-68
2022/01/19 06:45:08;;;;;;;54.90;19.63;;;;;;;-0.31;100.00;100942.47;4152566;28;21864;-66
2022/01/19 06:47:36;;;;;;;42.93;18.07;;;;;;;-0.25;100.00;100936.16;4160413;28;21983;-69
2022/01/19 06:50:04;;;;;;;57.87;19.77;;;;;;;-0.28;100.00;100947.59;4170078;28;21720;-73
2022/01/19 06:52:31;;;;;;;44.20;17.37;;;;;;;-0.24;100.00;100937.84;4188410;28;20282;-66
2022/01/19 06:54:58;;;;;;;49.27;18.37;;;;;;;-0.23;100.00;100935.16;4173531;28;20227;-67
2022/01/19 06:57:25;;;;;;;45.17;18.43;;;;;;;-0.25;100.00;100933.53;4149594;28;20751;-66
2022/01/19 06:59:51;;;;;;;44.93;18.93;;;;;;;-0.23;100.00;100947.41;4157653;28;21529;-68
2022/01/19 07:02:18;;;;;;;45.33;17.47;;;;;;;-0.19;100.00;100941.09;4173509;28;20235;-67
2022/01/19 07:04:49;;;;;;;46.37;17.63;;;;;;;-0.17;100.00;100941.91;4154625;28;20233;-70
2022/01/19 07:07:17;;;;;;;43.70;17.83;;;;;;;-0.15;100.00;100950.53;4167020;29;20294;-67
2022/01/19 07:09:44;;;;;;;39.93;17.73;;;;;;;-0.10;100.00;100948.56;4167077;28;21664;-65
2022/01/19 07:12:12;;;;;;;45.43;18.53;;;;;;;-0.09;100.00;100939.84;4164373;28;22153;-66
2022/01/19 07:14:39;;;;;;;53.13;17.30;;;;;;;-0.09;100.00;100937.22;4179793;28;20285;-64
2022/01/19 07:17:05;;;;;;;50.83;17.70;;;;;;;-0.10;100.00;100934.66;4177394;28;20500;-68
2022/01/19 07:19:32;;;;;;;53.90;17.27;;;;;;;-0.02;100.00;100925.56;4167957;28;20227;-64
2022/01/19 07:21:59;;;;;;;48.13;18.23;;;;;;;0.08;100.00;100935.66;4163062;28;21691;-65
2022/01/19 07:24:26;;;;;;;44.13;16.83;;;;;;;-0.02;100.00;100932.56;4168501;28;24152;-64
2022/01/19 07:26:53;;;;;;;49.93;17.20;;;;;;;0.05;100.00;100931.41;4185222;28;21731;-72
2022/01/19 07:29:19;;;;;;;46.67;17.43;;;;;;;0.08;100.00;100925.19;4197977;28;22349;-66
2022/01/19 07:31:46;;;;;;;38.40;16.30;;;;;;;0.06;100.00;100932.25;4166666;28;21168;-69
2022/01/19 07:34:12;;;;;;;44.23;16.17;;;;;;;0.04;100.00;100929.69;4176608;28;20329;-69
2022/01/19 07:36:39;;;;;;;47.87;17.07;;;;;;;-0.01;100.00;100924.66;4177149;28;20760;-67
2022/01/19 07:39:07;;;;;;;38.30;16.33;;;;;;;0.08;100.00;100919.94;4162566;28;20281;-67
2022/01/19 07:41:34;;;;;;;42.13;17.27;;;;;;;0.09;100.00;100919.03;4197290;28;20247;-67
2022/01/19 07:44:01;;;;;;;57.47;21.73;;;;;;;0.05;100.00;100917.44;4153292;28;20627;-67
2022/01/19 07:46:27;;;;;;;40.27;16.77;;;;;;;0.03;100.00;100912.28;4149775;28;22232;-65
2022/01/19 07:48:54;;;;;;;49.93;17.50;;;;;;;0.10;100.00;100908.50;4164103;28;20238;-67
2022/01/19 07:51:21;;;;;;;47.73;18.07;;;;;;;0.11;100.00;100898.88;4194125;28;21587;-68
2022/01/19 07:53:47;;;;;;;45.17;18.43;;;;;;;0.11;100.00;100901.50;4154676;28;22798;-67
2022/01/19 07:56:14;;;;;;;47.10;18.00;;;;;;;0.12;100.00;100895.34;4174635;28;20226;-69
2022/01/19 07:58:41;;;;;;;50.00;17.03;;;;;;;0.06;100.00;100896.47;4156761;28;21172;-68
2022/01/19 08:01:08;;;;;;;45.37;17.10;;;;;;;0.14;100.00;100888.25;4149580;28;20369;-68
2022/01/19 08:03:35;;;;;;;45.30;17.20;;;;;;;0.17;100.00;100878.53;4159245;28;20279;-69
2022/01/19 08:06:05;;;;;;;47.03;16.60;;;;;;;0.18;100.00;100876.75;4151160;28;26176;-68
2022/01/19 08:08:32;;;;;;;46.43;16.93;;;;;;;0.16;100.00;100873.34;4158314;28;22495;-69
2022/01/19 08:10:59;;;;;;;44.40;17.30;;;;;;;0.22;100.00;100880.94;4157744;28;20235;-68
2022/01/19 08:13:26;;;;;;;44.90;16.33;;;;;;;0.26;100.00;100877.28;4201633;28;21063;-71
2022/01/19 08:15:52;;;;;;;47.43;16.97;;;;;;;0.22;100.00;100872.25;4168754;28;20279;-69
2022/01/19 08:18:19;;;;;;;41.17;16.87;;;;;;;0.18;100.00;100871.50;4156578;28;21339;-68
2022/01/19 08:20:46;;;;;;;40.67;17.40;;;;;;;0.22;100.00;100869.63;4195518;28;20234;-68
2022/01/19 08:23:12;;;;;;;45.97;17.07;;;;;;;0.22;100.00;100865.25;4177852;28;20316;-68
2022/01/19 08:25:39;;;;;;;52.97;18.27;;;;;;;0.26;100.00;100861.56;4170298;28;21449;-67
2022/01/19 08:28:07;;;;;;;52.77;16.40;;;;;;;0.31;100.00;100853.50;4158649;28;21620;-69
2022/01/19 08:30:33;;;;;;;42.83;17.80;;;;;;;0.34;100.00;100859.44;4156157;28;21771;-68
2022/01/19 08:33:00;;;;;;;41.87;16.90;;;;;;;0.31;100.00;100851.75;4165839;28;20231;-68
2022/01/19 08:35:26;;;;;;;48.23;17.90;;;;;;;0.41;100.00;100844.31;4161667;28;20297;-66
2022/01/19 08:37:54;;;;;;;43.20;18.10;;;;;;;0.36;100.00;100848.91;4161984;28;20244;-67
2022/01/19 08:40:26;;;;;;;39.93;17.70;;;;;;;0.39;100.00;100847.00;4160365;28;22066;-67
2022/01/19 08:42:53;;;;;;;47.40;18.53;;;;;;;0.35;100.00;100850.69;4157694;28;20238;-66
2022/01/19 08:45:20;;;;;;;43.30;18.47;;;;;;;0.37;100.00;100838.34;4174716;28;20235;-66
2022/01/19 08:47:47;;;;;;;61.33;19.53;;;;;;;0.41;100.00;100828.59;4156867;28;22030;-66
2022/01/19 08:50:15;;;;;;;50.17;17.90;;;;;;;0.35;100.00;100829.75;4166852;28;20234;-69
2022/01/19 08:52:43;;;;;;;44.30;18.57;;;;;;;0.36;100.00;100826.19;4163705;28;21772;-67
2022/01/19 08:55:10;;;;;;;47.30;18.30;;;;;;;0.35;100.00;100828.88;4157346;28;20230;-68
2022/01/19 08:57:37;;;;;;;40.53;18.37;;;;;;;0.38;100.00;100829.59;4184663;28;21292;-66
2022/01/19 09:00:11;;;;;;;48.87;20.07;;;;;;;0.35;100.00;100829.75;4164535;28;20230;-67
2022/01/19 09:02:38;;;;;;;49.40;20.33;;;;;;;0.36;100.00;100826.19;4150666;28;23115;-66
2022/01/19 09:05:05;;;;;;;56.47;20.37;;;;;;;0.44;100.00;100822.38;4172042;28;21146;-67
2022/01/19 09:07:32;;;;;;;49.67;19.80;;;;;;;0.45;100.00;100806.59;4180118;28;20240;-66
2022/01/19 09:09:59;;;;;;;55.23;20.33;;;;;;;0.46;100.00;100810.91;4190072;28;20421;-64
2022/01/19 09:12:26;;;;;;;50.60;20.53;;;;;;;0.44;100.00;100814.53;4180255;28;20254;-65
2022/01/19 09:14:53;;;;;;;63.83;21.97;;;;;;;0.48;100.00;100818.72;4181859;28;20234;-67
2022/01/19 09:17:19;;;;;;;58.07;21.60;;;;;;;0.54;100.00;100800.06;4206292;28;20234;-66
2022/01/19 09:19:46;;;;;;;54.93;22.17;;;;;;;0.47;100.00;100809.13;4189599;28;21605;-68
2022/01/19 09:22:12;;;;;;;46.90;20.37;;;;;;;0.46;100.00;100804.84;4194990;28;21279;-67
2022/01/19 09:24:40;;;;;;;51.43;20.57;;;;;;;0.60;100.00;100791.94;4195904;28;20285;-67
2022/01/19 09:27:11;;;;;;;52.17;20.60;;;;;;;0.58;100.00;100786.75;4187359;28;20242;-67
2022/01/19 09:29:38;;;;;;;55.87;19.93;;;;;;;0.62;100.00;100787.47;4181319;28;20500;-66
2022/01/19 09:32:11;;;;;;;54.97;20.17;;;;;;;0.58;100.00;100789.38;4180868;28;22994;-68
2022/01/19 09:34:43;;;;;;;61.20;21.30;;;;;;;0.63;100.00;100784.81;4187333;28;25251;-69
2022/01/19 09:37:10;;;;;;;55.23;21.40;;;;;;;0.60;100.00;100776.22;4168020;28;20709;-70
2022/01/19 09:39:37;;;;;;;48.07;21.67;;;;;;;0.58;100.00;100776.28;4154670;28;20351;-67
2022/01/19 09:42:04;;;;;;;52.13;20.93;;;;;;;0.59;100.00;100775.38;4170271;28;20249;-69
2022/01/19 09:44:31;;;;;;;56.33;20.30;;;;;;;0.61;100.00;100770.09;4188374;28;20241;-68
2022/01/19 09:46:58;;;;;;;44.10;19.60;;;;;;;0.63;100.00;100756.00;4170077;28;20325;-68
2022/01/19 09:49:25;;;;;;;54.53;20.90;;;;;;;0.67;100.00;100761.91;4174254;28;21699;-67
2022/01/19 09:51:54;;;;;;;50.00;21.10;;;;;;;0.60;100.00;100755.28;4188375;28;20229;-70
2022/01/19 09:54:29;;;;;;;60.20;22.77;;;;;;;0.63;100.00;100749.88;4193247;28;20314;-68
2022/01/19 09:56:57;;;;;;;51.93;21.07;;;;;;;0.60;100.00;100750.88;4181565;28;20236;-68
2022/01/19 09:59:24;;;;;;;54.27;21.30;;;;;;;0.67;100.00;100735.72;4159238;28;20254;-68
2022/01/19 10:01:56;;;;;;;55.23;21.33;;;;;;;0.63;100.00;100734.16;4180947;28;21685;-69
2022/01/19 10:04:28;;;;;;;54.53;21.20;;;;;;;0.68;100.00;100732.19;4182874;28;20261;-68
2022/01/19 10:07:19;;;;;;;52.23;20.10;;;;;;;0.70;100.00;100734.72;4188625;29;20320;-76
2022/01/19 10:09:48;;;;;;;50.67;20.13;;;;;;;0.63;100.00;100735.03;4173922;28;26460;-67
2022/01/19 10:18:21;;;;;;;50.87;20.77;;;;;;;0.78;100.00;100733.44;4160756;29;20526;-69
2022/01/19 10:21:04;;;;;;;46.43;19.40;;;;;;;0.72;100.00;100731.09;4147386;28;20485;-72
2022/01/19 10:23:35;;;;;;;46.63;20.73;;;;;;;0.73;100.00;100729.38;4140827;29;20234;-70
2022/01/19 10:26:13;;;;;;;51.73;21.43;;;;;;;0.65;100.00;100727.09;4165669;29;20241;-71
2022/01/19 10:29:09;;;;;;;56.20;21.07;;;;;;;0.60;100.00;100723.84;4164194;28;20290;-71
2022/01/19 10:31:38;;;;;;;63.10;21.37;;;;;;;0.63;100.00;100721.94;4160863;28;21526;-74
2022/01/19 10:34:16;;;;;;;44.90;22.03;;;;;;;0.64;100.00;100728.03;4171794;28;20331;-70
2022/01/19 10:36:44;;;;;;;49.50;21.00;;;;;;;0.64;100.00;100720.19;4173306;28;23121;-70
2022/01/19 10:39:13;;;;;;;53.63;21.40;;;;;;;0.71;100.00;100711.09;4147639;29;20226;-72
2022/01/19 10:42:17;;;;;;;49.97;21.73;;;;;;;0.64;100.00;100709.69;4164348;28;20230;-68
2022/01/19 10:44:58;;;;;;;56.53;23.30;;;;;;;0.66;100.00;100705.25;4189232;28;22899;-68
2022/01/19 10:47:41;;;;;;;54.77;21.90;;;;;;;0.65;100.00;100693.06;4128597;29;20905;-68
2022/01/19 10:50:13;;;;;;;55.37;22.63;;;;;;;0.61;100.00;100694.16;4152328;28;20276;-70
2022/01/19 10:52:43;;;;;;;56.83;21.77;;;;;;;0.61;100.00;100692.38;4148927;28;20238;-69
2022/01/19 10:55:32;;;;;;;62.53;23.27;;;;;;;0.73;100.00;100698.78;4145193;29;20227;-70
2022/01/19 10:58:00;;;;;;;58.30;22.70;;;;;;;0.61;100.00;100704.63;4141753;29;20239;-68
2022/01/19 11:00:28;;;;;;;58.27;23.57;;;;;;;0.67;100.00;100688.59;4167646;29;20245;-70
2022/01/19 11:03:13;;;;;;;58.13;24.27;;;;;;;0.73;100.00;100693.53;4152761;29;21221;-69
2022/01/19 11:05:52;;;;;;;54.90;23.90;;;;;;;0.65;100.00;100674.72;4149276;29;26622;-70
2022/01/19 11:08:20;;;;;;;57.50;24.30;;;;;;;0.63;100.00;100677.44;4154003;29;21021;-78
2022/01/19 11:10:49;;;;;;;62.20;23.90;;;;;;;0.69;100.00;100672.81;4138257;28;23108;-67
2022/01/19 11:13:27;;;;;;;54.97;23.40;;;;;;;0.72;100.00;100673.50;4173210;29;21664;-68
2022/01/19 11:16:00;;;;;;;50.13;21.20;;;;;;;0.73;100.00;100662.09;4144541;28;20299;-67
2022/01/19 11:18:30;;;;;;;52.17;22.60;;;;;;;0.70;100.00;100662.25;4157208;28;20898;-67
2022/01/19 11:21:02;;;;;;;53.43;22.90;;;;;;;0.70;100.00;100662.25;4146253;29;20242;-67
2022/01/19 11:23:43;;;;;;;47.93;21.57;;;;;;;0.77;100.00;100661.03;4145325;29;20237;-67
2022/01/19 11:26:13;;;;;;;53.33;22.90;;;;;;;0.76;100.00;100656.69;4177096;29;20306;-68
2022/01/19 11:28:44;;;;;;;50.07;21.07;;;;;;;0.79;100.00;100643.44;4150585;29;20722;-65
2022/01/19 11:31:16;;;;;;;44.33;20.40;;;;;;;0.73;100.00;100641.16;4170370;28;24088;-68
2022/01/19 11:33:51;;;;;;;48.57;22.30;;;;;;;0.70;100.00;100630.81;4141308;28;21880;-66
2022/01/19 11:36:25;;;;;;;44.40;20.30;;;;;;;0.72;100.00;100638.59;4158281;29;20287;-65
2022/01/19 11:39:21;;;;;;;55.10;21.67;;;;;;;0.69;100.00;100625.66;4136692;29;20246;-66
2022/01/19 11:41:54;;;;;;;40.87;19.33;;;;;;;0.72;100.00;100634.19;4154349;29;22168;-66
2022/01/19 11:44:39;;;;;;;50.77;19.93;;;;;;;0.81;100.00;100625.88;4139808;29;22109;-68
2022/01/19 11:47:08;;;;;;;39.90;19.60;;;;;;;0.86;100.00;100614.31;4151489;29;20238;-67
2022/01/19 11:49:48;;;;;;;52.57;20.43;;;;;;;0.84;100.00;100623.13;4144897;29;20231;-66
2022/01/19 11:52:16;;;;;;;44.37;19.63;;;;;;;0.75;100.00;100618.34;4143565;28;25959;-70
2022/01/19 11:54:44;;;;;;;48.13;21.43;;;;;;;0.69;100.00;100602.94;4140283;29;20442;-67
2022/01/19 11:57:19;;;;;;;52.20;21.43;;;;;;;0.75;100.00;100613.13;4159195;28;22110;-68
2022/01/19 11:59:45;;;;;;;46.67;22.03;;;;;;;0.73;100.00;100599.25;4144963;28;20243;-68
2022/01/19 12:02:22;;;;;;;42.37;21.07;;;;;;;0.71;100.00;100593.25;4145685;28;20301;-68
2022/01/19 12:05:21;;;;;;;55.57;23.00;;;;;;;0.71;100.00;100587.16;4165851;28;26624;-66
2022/01/19 12:07:55;;;;;;;47.27;22.03;;;;;;;0.75;100.00;100589.53;4132536;28;20254;-63
2022/01/19 12:10:42;;;;;;;52.87;22.77;;;;;;;0.67;100.00;100586.44;4142401;28;20320;-66
2022/01/19 12:13:28;;;;;;;53.77;24.53;;;;;;;0.58;100.00;100573.81;4163686;28;20304;-65
2022/01/19 12:16:05;;;;;;;57.37;24.50;;;;;;;0.62;100.00;100575.38;4139751;28;20231;-66
2022/01/19 12:18:51;;;;;;;56.97;24.07;;;;;;;0.63;100.00;100570.06;4148146;28;22901;-67
2022/01/19 12:21:20;;;;;;;50.00;20.77;;;;;;;0.65;100.00;100564.72;4140997;28;20235;-65
2022/01/19 12:23:48;;;;;;;63.83;26.10;;;;;;;0.57;100.00;100564.28;4146709;28;22441;-65
2022/01/19 12:26:15;;;;;;;68.33;27.23;;;;;;;0.58;100.00;100550.25;4140053;28;20265;-66
2022/01/19 12:28:43;;;;;;;60.30;24.77;;;;;;;0.59;100.00;100554.59;4148927;28;20684;-67
2022/01/19 12:31:22;;;;;;;64.67;26.23;;;;;;;0.59;100.00;100551.97;4166101;28;20235;-66
2022/01/19 12:34:04;;;;;;;67.73;27.50;;;;;;;0.51;100.00;100541.88;4159361;28;22358;-67
2022/01/19 12:36:47;;;;;;;68.50;28.30;;;;;;;0.56;100.00;100541.63;4154183;28;20239;-66